Time;durP1;ratioP1;P1;durP2;ratioP2;P2;SDS_P1;SDS_P2;PMS_P1;PMS_P2;Temp;Humidity;BMP_temperature;BMP_pressure;BME280_temperature;BME280_humidity;BME280_pressure;Samples;Min_cycle;Max_cycle;Signal;HPM_P1;HPM_P2
2023/05/19 00:02:33;;;;;;;4.88;4.32;;;9.50;93.30;;;;;;6254067;28;20038;-78
2023/05/19 00:05:39;;;;;;;9.48;3.53;;;9.40;93.50;;;;;;6255230;28;20060;-82
2023/05/19 00:08:42;;;;;;;8.02;3.78;;;9.40;93.80;;;;;;6255815;28;20060;-80
2023/05/19 00:11:44;;;;;;;6.78;3.72;;;9.40;94.00;;;;;;6255321;28;20049;-80
2023/05/19 00:14:47;;;;;;;5.93;3.85;;;9.40;94.30;;;;;;6254598;28;20041;-79
2023/05/19 00:17:48;;;;;;;10.05;3.72;;;9.40;94.50;;;;;;6253339;28;20051;-80
2023/05/19 00:20:51;;;;;;;8.40;4.07;;;9.40;94.70;;;;;;6253694;28;20057;-79
2023/05/19 00:23:54;;;;;;;12.93;4.10;;;9.40;94.90;;;;;;6253733;28;20128;-80
2023/05/19 00:26:56;;;;;;;8.75;3.90;;;9.30;95.00;;;;;;6253672;28;20051;-82
2023/05/19 00:29:58;;;;;;;5.90;3.63;;;9.30;95.30;;;;;;6253240;28;20057;-80
2023/05/19 00:32:59;;;;;;;9.73;4.82;;;9.40;95.50;;;;;;6253281;28;20046;-82
2023/05/19 00:36:02;;;;;;;5.93;3.70;;;9.30;95.70;;;;;;6252784;28;20057;-81
2023/05/19 00:39:05;;;;;;;9.20;5.00;;;9.30;95.90;;;;;;6255110;28;20051;-81
2023/05/19 00:42:10;;;;;;;5.15;4.40;;;9.30;96.10;;;;;;6258931;28;20045;-80
2023/05/19 00:45:11;;;;;;;6.50;4.38;;;9.30;96.20;;;;;;6256992;28;20140;-80
2023/05/19 00:48:13;;;;;;;13.15;3.92;;;9.30;96.40;;;;;;6257350;28;20041;-82
2023/05/19 00:51:16;;;;;;;10.10;4.35;;;9.30;96.60;;;;;;6256888;28;20049;-82
2023/05/19 00:57:38;;;;;;;8.32;4.45;;;9.30;96.90;;;;;;6254797;28;20050;-81
2023/05/19 01:00:41;;;;;;;8.45;4.32;;;9.30;97.10;;;;;;6258266;28;20507;-83
2023/05/19 01:03:45;;;;;;;7.97;3.40;;;9.40;97.20;;;;;;6256307;28;20061;-82
2023/05/19 01:06:48;;;;;;;11.25;6.47;;;9.40;97.30;;;;;;6255055;28;20111;-81
2023/05/19 01:09:51;;;;;;;8.07;4.88;;;9.40;97.30;;;;;;6255739;28;20419;-84
2023/05/19 01:12:53;;;;;;;7.45;3.90;;;9.40;97.40;;;;;;6255268;28;20422;-83
2023/05/19 01:16:07;;;;;;;7.30;3.13;;;9.30;97.40;;;;;;6256612;28;20053;-82
2023/05/19 01:19:20;;;;;;;4.70;3.28;;;9.30;97.50;;;;;;6255572;28;20045;-82
2023/05/19 01:22:32;;;;;;;5.22;4.05;;;9.30;97.90;;;;;;6257206;28;20046;-80
2023/05/19 01:26:22;;;;;;;4.95;3.83;;;9.30;97.80;;;;;;6258850;28;20068;-82
2023/05/19 01:29:45;;;;;;;7.85;3.53;;;9.30;97.80;;;;;;6200657;28;20045;-83
2023/05/19 01:32:48;;;;;;;5.38;3.60;;;9.30;97.90;;;;;;6259269;28;20045;-83
2023/05/19 01:35:53;;;;;;;5.72;3.97;;;9.30;97.90;;;;;;6258939;28;20050;-82
2023/05/19 01:38:58;;;;;;;5.30;2.95;;;9.30;98.00;;;;;;6260760;28;20136;-82
2023/05/19 01:42:01;;;;;;;4.40;3.40;;;9.40;98.20;;;;;;6259875;28;20052;-81
2023/05/19 01:45:04;;;;;;;5.28;3.67;;;9.40;98.30;;;;;;6258166;28;20387;-80
2023/05/19 01:48:08;;;;;;;5.05;4.00;;;9.40;98.40;;;;;;6260220;28;20056;-81
2023/05/19 01:51:09;;;;;;;9.38;3.67;;;9.40;98.50;;;;;;6258165;28;20435;-81
2023/05/19 01:54:11;;;;;;;11.15;3.75;;;9.40;98.50;;;;;;6259187;28;20128;-79
2023/05/19 01:57:21;;;;;;;8.57;4.00;;;9.40;98.60;;;;;;6259522;28;20127;-79
2023/05/19 02:00:31;;;;;;;5.97;3.97;;;9.40;98.60;;;;;;6260984;28;20051;-83
2023/05/19 02:03:53;;;;;;;11.00;4.25;;;9.40;98.60;;;;;;6260854;28;20422;-83
2023/05/19 02:07:03;;;;;;;3.95;3.05;;;9.40;98.70;;;;;;6260655;28;20059;-83
2023/05/19 02:10:06;;;;;;;3.95;3.53;;;9.40;98.70;;;;;;6259795;28;20060;-82
2023/05/19 02:13:10;;;;;;;5.80;4.43;;;9.50;98.80;;;;;;6259609;28;20461;-80
2023/05/19 02:16:13;;;;;;;3.85;3.40;;;9.50;98.80;;;;;;6260121;28;20057;-81
2023/05/19 02:19:24;;;;;;;4.38;3.97;;;9.50;98.90;;;;;;6258540;28;20053;-80
2023/05/19 02:22:26;;;;;;;2.92;2.72;;;9.50;98.90;;;;;;6257618;28;20053;-79
2023/05/19 02:25:27;;;;;;;6.07;3.97;;;9.50;99.20;;;;;;6260026;28;20075;-84
2023/05/19 02:28:29;;;;;;;7.68;3.60;;;9.50;98.90;;;;;;6259743;28;20064;-81
2023/05/19 02:31:31;;;;;;;6.88;3.63;;;9.50;99.00;;;;;;6258088;28;20052;-80
2023/05/19 02:34:34;;;;;;;6.38;3.42;;;9.50;98.90;;;;;;6260169;28;20061;-78
2023/05/19 02:37:36;;;;;;;6.85;3.50;;;9.50;99.00;;;;;;6260928;28;20453;-84
2023/05/19 02:40:38;;;;;;;4.57;3.30;;;9.40;99.10;;;;;;6244391;28;20058;-82
2023/05/19 02:43:40;;;;;;;9.68;4.18;;;9.50;99.20;;;;;;6261799;28;20095;-82
2023/05/19 02:46:41;;;;;;;6.28;3.80;;;9.50;99.20;;;;;;6261838;28;20055;-83
2023/05/19 02:49:44;;;;;;;7.25;3.95;;;9.50;99.20;;;;;;6261354;28;20045;-79
2023/05/19 02:52:46;;;;;;;4.72;3.15;;;9.50;99.20;;;;;;6260879;28;20049;-84
2023/05/19 02:55:48;;;;;;;7.50;3.70;;;9.40;99.30;;;;;;6261693;28;20053;-83
2023/05/19 02:58:51;;;;;;;7.97;4.13;;;9.40;99.30;;;;;;6258890;28;20056;-79
2023/05/19 03:01:55;;;;;;;5.30;3.80;;;9.50;99.40;;;;;;6258608;28;20109;-82
2023/05/19 03:05:00;;;;;;;5.95;4.45;;;9.40;99.40;;;;;;6256776;28;20471;-82
2023/05/19 03:08:02;;;;;;;4.38;2.95;;;9.40;99.50;;;;;;6256267;28;20076;-78
2023/05/19 03:11:04;;;;;;;7.25;4.38;;;9.40;99.60;;;;;;6255729;28;20053;-82
2023/05/19 03:14:08;;;;;;;7.65;5.90;;;9.40;99.70;;;;;;6256631;28;20049;-80
2023/05/19 03:17:10;;;;;;;8.45;4.85;;;9.40;99.80;;;;;;6256226;28;20480;-81
2023/05/19 03:20:14;;;;;;;5.40;3.83;;;9.30;99.90;;;;;;6256119;28;20532;-82
2023/05/19 03:23:16;;;;;;;11.00;4.75;;;9.30;99.90;;;;;;6256629;28;20049;-80
2023/05/19 03:26:18;;;;;;;8.77;4.05;;;9.30;99.90;;;;;;6255583;28;20053;-82
2023/05/19 03:29:20;;;;;;;9.13;4.00;;;9.30;99.90;;;;;;6255489;28;20049;-79
2023/05/19 03:32:22;;;;;;;7.65;4.57;;;9.30;99.90;;;;;;6259922;28;20583;-78
2023/05/19 03:35:25;;;;;;;6.15;4.18;;;9.30;99.90;;;;;;6257876;28;20052;-80
2023/05/19 03:38:26;;;;;;;7.47;4.78;;;9.30;99.90;;;;;;6259142;28;20057;-80
2023/05/19 03:41:30;;;;;;;9.30;4.35;;;9.30;99.90;;;;;;6258142;28;20122;-82
2023/05/19 03:44:32;;;;;;;6.20;4.43;;;9.30;99.90;;;;;;6261279;28;20243;-79
2023/05/19 03:47:34;;;;;;;8.38;4.53;;;9.30;99.90;;;;;;6260320;28;20069;-80
2023/05/19 03:50:37;;;;;;;14.63;5.00;;;9.30;99.90;;;;;;6261260;28;20041;-81
2023/05/19 03:53:40;;;;;;;6.90;4.63;;;9.30;99.90;;;;;;6260505;28;20045;-81
2023/05/19 03:56:43;;;;;;;7.47;4.90;;;9.30;99.90;;;;;;6262319;28;20050;-81
2023/05/19 03:59:44;;;;;;;9.00;5.35;;;9.30;99.90;;;;;;6262005;28;20059;-81
2023/05/19 04:02:46;;;;;;;8.95;4.60;;;9.30;99.90;;;;;;6261257;28;20055;-82
2023/05/19 04:05:50;;;;;;;10.50;4.95;;;9.30;99.90;;;;;;6261521;28;20404;-82
2023/05/19 04:08:52;;;;;;;6.93;5.35;;;9.40;99.90;;;;;;6261901;28;20088;-83
2023/05/19 04:11:53;;;;;;;7.32;5.72;;;9.40;99.90;;;;;;6262237;28;20049;-83
2023/05/19 04:14:55;;;;;;;6.80;5.85;;;9.50;99.90;;;;;;6259269;28;20044;-83
2023/05/19 04:17:57;;;;;;;11.00;5.55;;;9.40;99.90;;;;;;6261188;28;20063;-83
2023/05/19 04:21:00;;;;;;;8.05;4.65;;;9.50;99.90;;;;;;6261705;28;20050;-81
2023/05/19 04:24:05;;;;;;;6.70;5.97;;;9.60;99.90;;;;;;6262677;28;20050;-82
2023/05/19 04:27:10;;;;;;;6.57;5.03;;;9.60;99.90;;;;;;6261627;28;20557;-85
2023/05/19 04:30:15;;;;;;;9.25;5.40;;;9.70;99.90;;;;;;6262372;28;20049;-84
2023/05/19 04:33:18;;;;;;;9.70;5.90;;;9.70;99.90;;;;;;6272955;28;20076;-84
2023/05/19 04:36:22;;;;;;;11.05;5.00;;;9.80;99.90;;;;;;6275634;28;20034;-82
2023/05/19 04:39:24;;;;;;;6.75;4.78;;;9.90;99.90;;;;;;6274614;28;20047;-83
2023/05/19 04:42:29;;;;;;;7.82;4.90;;;10.00;99.90;;;;;;6274382;28;20033;-82
2023/05/19 04:45:31;;;;;;;7.05;4.85;;;10.10;99.90;;;;;;6266657;28;20040;-84
2023/05/19 04:48:33;;;;;;;9.77;5.13;;;10.20;99.90;;;;;;6290193;28;20048;-84
2023/05/19 04:51:40;;;;;;;8.73;5.10;;;10.30;99.90;;;;;;6296516;28;20285;-82
2023/05/19 04:54:43;;;;;;;5.95;4.25;;;10.40;99.90;;;;;;6295765;28;20069;-82
2023/05/19 04:57:44;;;;;;;8.88;4.63;;;10.50;99.90;;;;;;6295240;28;20049;-83
2023/05/19 05:00:46;;;;;;;9.93;4.78;;;10.60;99.90;;;;;;6296721;28;20112;-81
2023/05/19 05:03:49;;;;;;;7.55;5.38;;;10.70;99.90;;;;;;6296625;28;20045;-85
2023/05/19 05:06:52;;;;;;;5.53;4.25;;;10.70;99.90;;;;;;6271858;28;20034;-81
2023/05/19 05:09:54;;;;;;;4.60;4.18;;;10.90;99.90;;;;;;6269188;28;20049;-83
2023/05/19 05:12:56;;;;;;;8.52;4.53;;;11.00;99.90;;;;;;6283537;22;20045;-81
2023/05/19 05:15:58;;;;;;;4.75;3.92;;;11.20;99.90;;;;;;6277018;28;20059;-81
2023/05/19 05:19:01;;;;;;;11.07;3.92;;;11.50;99.90;;;;;;6276198;28;20067;-83
2023/05/19 05:22:05;;;;;;;7.88;3.83;;;11.80;99.90;;;;;;6276642;28;20045;-87
2023/05/19 05:25:08;;;;;;;6.00;4.85;;;12.20;99.90;;;;;;6270457;28;20053;-83
2023/05/19 05:28:10;;;;;;;8.18;3.50;;;12.50;99.90;;;;;;6267360;28;20046;-82
2023/05/19 05:31:11;;;;;;;5.68;3.88;;;12.70;99.30;;;;;;6258843;28;20111;-82
2023/05/19 05:34:13;;;;;;;7.55;3.42;;;12.90;98.90;;;;;;6256853;28;20045;-82
2023/05/19 05:37:16;;;;;;;5.00;2.75;;;13.10;98.60;;;;;;6257693;28;20041;-84
2023/05/19 05:40:19;;;;;;;6.95;2.95;;;13.40;98.50;;;;;;6256286;28;20054;-82
2023/05/19 05:43:20;;;;;;;7.63;3.20;;;13.80;98.50;;;;;;6256198;28;20144;-82
2023/05/19 05:46:22;;;;;;;3.33;2.35;;;14.40;98.00;;;;;;6260875;28;20049;-84
2023/05/19 05:49:24;;;;;;;11.13;3.03;;;15.00;97.10;;;;;;6257149;28;20060;-84
2023/05/19 05:52:30;;;;;;;4.82;2.85;;;15.60;95.90;;;;;;6258174;28;20049;-85
2023/05/19 05:55:32;;;;;;;8.00;3.33;;;15.80;94.00;;;;;;6258645;28;20046;-82
2023/05/19 05:58:35;;;;;;;4.55;2.38;;;15.70;92.90;;;;;;6253689;28;20052;-81
2023/05/19 06:01:37;;;;;;;8.10;2.50;;;15.80;92.60;;;;;;6259115;28;20076;-84
2023/05/19 06:04:39;;;;;;;11.55;2.50;;;16.10;91.60;;;;;;6255662;28;20049;-83
2023/05/19 06:07:42;;;;;;;4.28;3.10;;;16.50;91.00;;;;;;6254940;28;20059;-82
2023/05/19 06:10:44;;;;;;;5.60;2.15;;;16.90;89.50;;;;;;6255143;28;20046;-82
2023/05/19 06:13:45;;;;;;;5.80;3.15;;;17.20;88.50;;;;;;6253928;28;20049;-82
2023/05/19 06:16:47;;;;;;;5.35;2.08;;;17.70;86.90;;;;;;6255180;28;20045;-83
2023/05/19 06:19:49;;;;;;;4.15;2.67;;;18.10;84.70;;;;;;6255530;28;20045;-85
2023/05/19 06:22:52;;;;;;;4.10;2.03;;;18.40;82.00;;;;;;6254444;28;20049;-83
2023/05/19 06:25:54;;;;;;;7.45;2.50;;;18.50;80.50;;;;;;6254159;28;20049;-81
2023/05/19 06:28:56;;;;;;;5.68;3.03;;;18.80;79.20;;;;;;6254066;28;20053;-83
2023/05/19 06:31:58;;;;;;;5.07;2.17;;;18.90;77.40;;;;;;6254827;28;20050;-83
2023/05/19 06:34:59;;;;;;;3.88;2.40;;;18.90;76.00;;;;;;6253441;28;20080;-83
2023/05/19 06:38:02;;;;;;;3.67;1.95;;;19.00;74.90;;;;;;6254236;28;20123;-82
2023/05/19 06:41:04;;;;;;;3.72;2.25;;;19.20;74.00;;;;;;6253985;28;20045;-84
2023/05/19 06:44:07;;;;;;;8.05;3.25;;;19.60;73.50;;;;;;6254028;28;20053;-86
2023/05/19 06:47:09;;;;;;;5.30;2.85;;;20.00;71.70;;;;;;6253346;28;20100;-82
2023/05/19 06:50:10;;;;;;;8.05;2.45;;;20.30;70.30;;;;;;6256402;28;20056;-83
2023/05/19 06:53:13;;;;;;;9.68;2.08;;;20.60;68.90;;;;;;6254617;28;20047;-85
2023/05/19 06:56:16;;;;;;;9.20;2.97;;;20.80;67.30;;;;;;6255193;28;20125;-81
2023/05/19 06:59:20;;;;;;;4.65;2.40;;;21.00;66.40;;;;;;6257713;28;20057;-82
2023/05/19 07:02:22;;;;;;;6.05;2.75;;;21.20;65.70;;;;;;6276177;28;20052;-82
2023/05/19 07:05:24;;;;;;;8.30;2.88;;;21.40;65.10;;;;;;6247828;28;20049;-81
2023/05/19 07:08:27;;;;;;;7.60;2.42;;;21.60;64.40;;;;;;6249026;28;20665;-83
2023/05/19 07:11:29;;;;;;;7.18;3.05;;;21.80;63.30;;;;;;6249679;28;20045;-83
2023/05/19 07:14:30;;;;;;;5.95;2.60;;;22.20;62.80;;;;;;6241636;28;20040;-82
2023/05/19 07:17:32;;;;;;;2.72;1.98;;;22.40;62.10;;;;;;6234706;28;20061;-82
2023/05/19 07:20:34;;;;;;;8.30;2.42;;;22.70;61.10;;;;;;6237559;28;20042;-83
2023/05/19 07:23:37;;;;;;;5.25;2.45;;;23.20;60.30;;;;;;6234761;28;20048;-85
2023/05/19 07:26:38;;;;;;;6.40;2.15;;;23.30;58.80;;;;;;6234537;28;20061;-81
2023/05/19 07:29:40;;;;;;;10.30;3.08;;;23.10;58.30;;;;;;6237795;28;20385;-82
2023/05/19 07:32:42;;;;;;;11.93;4.28;;;23.00;58.00;;;;;;6240957;28;20482;-86
2023/05/19 07:35:44;;;;;;;6.30;2.72;;;23.00;58.20;;;;;;6235659;28;20461;-82
2023/05/19 07:38:47;;;;;;;6.05;2.78;;;23.30;58.40;;;;;;6241074;28;20033;-82
2023/05/19 07:41:52;;;;;;;16.77;4.07;;;23.70;57.10;;;;;;6239468;28;20045;-83
2023/05/19 07:44:54;;;;;;;10.43;2.95;;;23.80;57.30;;;;;;6240820;28;20056;-84
2023/05/19 07:47:56;;;;;;;12.50;3.65;;;24.20;56.90;;;;;;6245209;28;20056;-82
2023/05/19 07:50:58;;;;;;;6.03;2.35;;;24.80;56.30;;;;;;6246305;28;20045;-86
2023/05/19 07:54:01;;;;;;;7.45;2.20;;;25.30;55.10;;;;;;6250495;28;20138;-84
2023/05/19 07:57:02;;;;;;;8.93;3.00;;;25.50;53.90;;;;;;6250590;28;20052;-82
2023/05/19 08:00:10;;;;;;;5.25;2.47;;;25.40;53.10;;;;;;6241893;28;20048;-83
2023/05/19 08:03:16;;;;;;;6.53;1.85;;;25.10;52.60;;;;;;6245664;28;20037;-84
2023/05/19 08:06:18;;;;;;;6.20;3.03;;;24.80;53.00;;;;;;6239771;28;20132;-81
2023/05/19 08:09:21;;;;;;;5.90;2.30;;;24.40;52.80;;;;;;6246354;28;20064;-85
2023/05/19 08:12:22;;;;;;;8.55;2.83;;;24.10;53.10;;;;;;6249038;28;20053;-80
2023/05/19 08:15:25;;;;;;;4.72;2.58;;;24.30;53.40;;;;;;6248451;28;20044;-80
2023/05/19 08:18:26;;;;;;;7.22;2.38;;;24.60;53.20;;;;;;6250170;28;20045;-80
2023/05/19 08:21:28;;;;;;;4.80;2.58;;;24.70;52.60;;;;;;6242792;28;20041;-83
2023/05/19 08:24:32;;;;;;;13.73;3.75;;;24.70;52.90;;;;;;6253767;28;20041;-80
2023/05/19 08:27:34;;;;;;;15.00;3.72;;;25.10;52.10;;;;;;6241843;28;20041;-83
2023/05/19 08:30:36;;;;;;;7.97;1.95;;;24.70;52.20;;;;;;6249483;28;20037;-81
2023/05/19 08:33:38;;;;;;;13.95;2.85;;;25.00;52.50;;;;;;6251126;28;20041;-83
2023/05/19 08:36:40;;;;;;;5.53;2.63;;;25.40;52.00;;;;;;6250230;28;20048;-85
2023/05/19 08:39:43;;;;;;;7.53;2.90;;;25.90;51.50;;;;;;6250920;28;20147;-82
2023/05/19 08:42:45;;;;;;;7.25;3.20;;;26.20;50.50;;;;;;6248960;28;20050;-81
2023/05/19 08:45:47;;;;;;;5.95;3.03;;;26.10;49.90;;;;;;6252449;28;20051;-82
2023/05/19 08:48:52;;;;;;;6.65;2.25;;;25.60;49.80;;;;;;6245670;28;20566;-82
2023/05/19 08:52:00;;;;;;;8.48;3.47;;;25.30;50.60;;;;;;6251958;28;20057;-81
2023/05/19 08:55:08;;;;;;;9.32;2.67;;;25.10;50.30;;;;;;6249023;28;20050;-83
2023/05/19 08:58:11;;;;;;;6.47;3.33;;;24.50;50.50;;;;;;6249764;28;20041;-81
2023/05/19 09:01:15;;;;;;;10.13;2.75;;;23.90;51.30;;;;;;6246380;28;20054;-80
2023/05/19 09:04:17;;;;;;;7.65;2.75;;;23.90;51.90;;;;;;6251253;28;20053;-78
2023/05/19 09:07:19;;;;;;;7.15;2.92;;;24.10;52.20;;;;;;6252066;28;20064;-84
2023/05/19 09:10:22;;;;;;;11.98;2.83;;;24.20;52.00;;;;;;6248132;28;20049;-80
2023/05/19 09:13:24;;;;;;;8.00;2.92;;;24.20;52.00;;;;;;6254730;28;20380;-80
2023/05/19 09:16:26;;;;;;;6.15;3.28;;;24.40;51.00;;;;;;6258385;28;20060;-85
2023/05/19 09:19:29;;;;;;;6.30;2.65;;;24.30;50.90;;;;;;6253718;28;20037;-84
2023/05/19 09:22:34;;;;;;;5.93;2.45;;;24.20;51.20;;;;;;6254049;28;20049;-81
2023/05/19 09:25:48;;;;;;;11.82;3.10;;;24.50;51.50;;;;;;6256799;28;20067;-82
2023/05/19 09:28:49;;;;;;;5.28;2.55;;;24.70;50.40;;;;;;6248983;28;20048;-81
2023/05/19 09:31:53;;;;;;;5.65;2.65;;;24.70;50.20;;;;;;6248019;28;20045;-80
2023/05/19 09:34:54;;;;;;;9.80;2.85;;;25.10;50.30;;;;;;6255940;28;20131;-80
2023/05/19 09:38:05;;;;;;;5.97;3.20;;;25.80;49.70;;;;;;6254403;28;20057;-84
2023/05/19 09:41:08;;;;;;;7.72;2.65;;;26.30;47.80;;;;;;6255582;28;20119;-83
2023/05/19 09:44:13;;;;;;;9.18;2.97;;;25.70;47.60;;;;;;6255021;28;20140;-82
2023/05/19 09:47:15;;;;;;;11.60;3.22;;;25.20;47.80;;;;;;6255416;28;20045;-82
2023/05/19 09:50:17;;;;;;;6.28;2.75;;;24.30;48.10;;;;;;6256996;28;20176;-84
2023/05/19 09:53:19;;;;;;;7.10;3.13;;;23.60;49.10;;;;;;6254987;28;20057;-81
2023/05/19 09:56:24;;;;;;;9.90;2.25;;;23.10;50.00;;;;;;6241432;28;20049;-83
2023/05/19 09:59:28;;;;;;;5.45;2.47;;;22.80;50.60;;;;;;6242804;28;20054;-83
2023/05/19 10:02:31;;;;;;;4.07;2.42;;;22.70;51.20;;;;;;6240536;28;20047;-85
2023/05/19 10:05:33;;;;;;;4.15;2.53;;;22.60;51.30;;;;;;6241564;28;20061;-85
2023/05/19 10:08:35;;;;;;;8.77;2.67;;;22.40;51.90;;;;;;6237865;28;20045;-84
2023/05/19 10:11:39;;;;;;;7.60;2.55;;;22.30;51.90;;;;;;6232635;28;20053;-79
2023/05/19 10:14:41;;;;;;;6.25;2.33;;;22.40;51.80;;;;;;6232785;28;20042;-80
2023/05/19 10:17:44;;;;;;;3.10;2.20;;;22.50;51.90;;;;;;6228896;28;20052;-80
2023/05/19 10:20:47;;;;;;;4.40;2.00;;;22.40;51.50;;;;;;6228509;28;20390;-81
2023/05/19 10:23:49;;;;;;;10.20;4.25;;;22.10;51.40;;;;;;6235434;28;20049;-81
2023/05/19 10:26:57;;;;;;;3.05;2.10;;;22.10;52.10;;;;;;6250932;28;20042;-82
2023/05/19 10:30:04;;;;;;;6.38;2.88;;;22.50;51.50;;;;;;6251736;28;20044;-80
2023/05/19 10:33:10;;;;;;;4.22;2.78;;;22.90;51.00;;;;;;6252701;28;20055;-82
2023/05/19 10:36:30;;;;;;;5.50;1.95;;;23.00;50.80;;;;;;6249908;28;20040;-80
2023/05/19 10:39:35;;;;;;;2.92;1.98;;;23.20;51.20;;;;;;6250817;28;20048;-80
2023/05/19 10:42:44;;;;;;;7.20;1.88;;;23.50;50.20;;;;;;6249614;28;20645;-80
2023/05/19 10:45:48;;;;;;;4.30;2.35;;;23.30;49.50;;;;;;6246795;28;20130;-81
2023/05/19 10:48:51;;;;;;;6.32;2.15;;;22.60;50.90;;;;;;6250217;28;20053;-80
2023/05/19 10:51:55;;;;;;;8.43;2.83;;;22.30;51.40;;;;;;6251338;28;20049;-81
2023/05/19 10:54:57;;;;;;;6.85;3.42;;;22.30;51.70;;;;;;6248533;28;20048;-78
2023/05/19 10:58:00;;;;;;;4.65;1.95;;;22.40;51.70;;;;;;6246445;28;20052;-79
2023/05/19 11:01:02;;;;;;;4.97;2.10;;;22.40;51.60;;;;;;6247482;28;20522;-81
2023/05/19 11:04:06;;;;;;;4.57;2.38;;;22.30;51.80;;;;;;6242843;28;20064;-80
2023/05/19 11:07:09;;;;;;;7.00;2.05;;;22.20;51.90;;;;;;6242536;28;20403;-81
2023/05/19 11:10:12;;;;;;;6.15;2.28;;;21.60;52.50;;;;;;6240671;28;20042;-81
2023/05/19 11:13:21;;;;;;;3.67;1.88;;;21.40;53.20;;;;;;6244910;28;20057;-81
2023/05/19 11:16:29;;;;;;;3.15;1.40;;;21.30;53.10;;;;;;6245576;28;20046;-81
2023/05/19 11:19:32;;;;;;;4.90;2.65;;;21.10;53.40;;;;;;6245685;28;20044;-82
2023/05/19 11:22:35;;;;;;;6.68;2.42;;;20.90;54.00;;;;;;6247356;28;20092;-82
2023/05/19 11:25:46;;;;;;;5.78;2.67;;;21.10;54.50;;;;;;6245717;28;20044;-82
2023/05/19 11:28:49;;;;;;;2.95;1.88;;;21.20;54.60;;;;;;6244117;28;20045;-82
2023/05/19 11:31:52;;;;;;;5.85;2.47;;;21.50;54.10;;;;;;6244302;28;20045;-82
2023/05/19 11:34:55;;;;;;;4.40;1.92;;;21.20;54.00;;;;;;6240295;28;20045;-82
2023/05/19 11:37:57;;;;;;;4.20;2.15;;;20.90;54.20;;;;;;6250177;28;20506;-82
2023/05/19 11:41:00;;;;;;;3.22;1.95;;;20.70;54.70;;;;;;6245351;28;20041;-81
2023/05/19 11:44:03;;;;;;;4.70;2.95;;;20.60;55.30;;;;;;6246605;28;20054;-82
2023/05/19 11:47:05;;;;;;;6.00;2.35;;;20.70;55.80;;;;;;6241845;28;20033;-82
2023/05/19 11:50:11;;;;;;;4.68;2.58;;;20.90;55.60;;;;;;6244193;28;20038;-82
2023/05/19 11:53:13;;;;;;;2.88;2.45;;;20.90;55.70;;;;;;6244468;28;20518;-82
2023/05/19 11:56:15;;;;;;;4.03;2.45;;;20.90;55.80;;;;;;6243366;28;20045;-82
2023/05/19 11:59:28;;;;;;;4.97;1.95;;;20.80;56.00;;;;;;6248726;28;20049;-82
2023/05/19 12:02:30;;;;;;;7.20;1.92;;;20.60;56.30;;;;;;6247391;28;20049;-82
2023/05/19 12:05:32;;;;;;;5.55;2.15;;;20.50;56.40;;;;;;6247658;28;20033;-82
2023/05/19 12:08:36;;;;;;;3.80;2.42;;;20.30;56.50;;;;;;6244172;28;20048;-81
2023/05/19 12:11:38;;;;;;;7.15;3.45;;;20.00;57.00;;;;;;6246734;28;20057;-82
2023/05/19 12:14:42;;;;;;;6.25;2.47;;;19.80;57.60;;;;;;6253703;28;20037;-82
2023/05/19 12:17:45;;;;;;;3.85;1.63;;;19.70;58.10;;;;;;6255870;28;20047;-80
2023/05/19 12:20:47;;;;;;;6.18;2.13;;;19.60;58.30;;;;;;6244305;28;20091;-82
2023/05/19 12:23:48;;;;;;;4.68;1.95;;;19.60;58.70;;;;;;6240053;28;20060;-82
2023/05/19 12:26:50;;;;;;;7.10;2.13;;;19.60;59.00;;;;;;6240407;28;20039;-82
2023/05/19 12:29:55;;;;;;;3.63;2.75;;;19.50;59.20;;;;;;6245329;28;20038;-82
2023/05/19 12:32:57;;;;;;;3.90;2.28;;;19.40;59.50;;;;;;6242720;28;21875;-82
2023/05/19 12:36:00;;;;;;;5.63;2.85;;;19.30;59.70;;;;;;6235265;28;20045;-81
2023/05/19 12:39:04;;;;;;;5.03;2.35;;;19.30;59.90;;;;;;6229676;28;20053;-82
2023/05/19 12:42:08;;;;;;;6.32;2.75;;;19.30;60.10;;;;;;6237469;28;20761;-82
2023/05/19 12:45:11;;;;;;;5.10;2.53;;;19.10;60.30;;;;;;6241787;28;20042;-81
2023/05/19 12:48:15;;;;;;;4.95;2.55;;;18.90;60.70;;;;;;6230200;28;20085;-81
2023/05/19 12:51:18;;;;;;;6.38;2.25;;;18.90;61.10;;;;;;6235458;28;20056;-81
2023/05/19 12:54:20;;;;;;;8.35;2.35;;;18.80;61.60;;;;;;6238046;28;20045;-81
2023/05/19 12:57:22;;;;;;;5.18;2.90;;;18.80;61.90;;;;;;6249198;28;20056;-85
2023/05/19 13:00:27;;;;;;;8.68;5.00;;;18.70;62.00;;;;;;6255157;28;20057;-82
2023/05/19 13:03:29;;;;;;;5.20;2.20;;;18.60;62.80;;;;;;6257703;28;20109;-81
2023/05/19 13:06:31;;;;;;;5.68;2.67;;;18.70;62.30;;;;;;6253950;28;20135;-82
2023/05/19 13:09:35;;;;;;;4.07;2.13;;;18.80;62.40;;;;;;6250076;28;20041;-83
2023/05/19 13:12:36;;;;;;;3.45;2.53;;;18.90;62.50;;;;;;6250905;28;20049;-83
2023/05/19 13:15:42;;;;;;;3.10;2.65;;;18.90;62.50;;;;;;6252822;28;20041;-82
2023/05/19 13:18:43;;;;;;;2.83;2.28;;;18.90;62.60;;;;;;6248293;28;20060;-81
2023/05/19 13:21:46;;;;;;;3.95;2.38;;;19.00;62.60;;;;;;6251867;28;20061;-83
2023/05/19 13:24:48;;;;;;;4.88;2.92;;;19.00;62.40;;;;;;6252804;28;20425;-82
2023/05/19 13:27:49;;;;;;;6.72;2.70;;;18.80;62.70;;;;;;6257127;28;20055;-82
2023/05/19 13:30:52;;;;;;;6.25;2.90;;;18.80;63.00;;;;;;6249441;28;20710;-80
2023/05/19 13:33:54;;;;;;;5.07;2.53;;;18.90;63.00;;;;;;6248663;28;20053;-85
2023/05/19 13:36:56;;;;;;;8.70;3.63;;;19.10;63.10;;;;;;6250572;28;20048;-83
2023/05/19 13:39:57;;;;;;;3.95;3.20;;;19.30;62.80;;;;;;6247009;28;20068;-82
2023/05/19 13:42:59;;;;;;;7.30;3.08;;;19.40;62.60;;;;;;6243771;28;20054;-81
2023/05/19 13:46:02;;;;;;;8.30;3.03;;;19.50;62.50;;;;;;6257484;28;20052;-80
2023/05/19 13:49:04;;;;;;;3.63;2.45;;;19.70;62.60;;;;;;6251025;28;20045;-84
2023/05/19 13:52:06;;;;;;;9.70;2.83;;;19.70;62.20;;;;;;6254746;28;20491;-83
2023/05/19 13:55:09;;;;;;;5.80;3.05;;;19.60;62.50;;;;;;6256310;28;20049;-82
2023/05/19 13:58:12;;;;;;;5.43;2.97;;;19.50;62.10;;;;;;6254986;28;20048;-88
2023/05/19 14:01:15;;;;;;;9.63;3.65;;;19.40;62.50;;;;;;6254673;28;20131;-80
2023/05/19 14:04:18;;;;;;;3.22;2.78;;;19.40;62.70;;;;;;6249781;28;20468;-81
2023/05/19 14:07:20;;;;;;;5.82;3.20;;;19.40;63.20;;;;;;6247301;28;20048;-86
2023/05/19 14:10:21;;;;;;;4.18;2.45;;;19.60;63.10;;;;;;6248456;28;20045;-82
2023/05/19 14:13:25;;;;;;;5.43;2.70;;;19.70;62.80;;;;;;6246142;28;20440;-82
2023/05/19 14:16:29;;;;;;;5.90;2.38;;;19.80;62.40;;;;;;6255478;28;20091;-83
2023/05/19 14:19:30;;;;;;;5.68;2.47;;;19.80;62.30;;;;;;6253691;28;20565;-85
2023/05/19 14:22:32;;;;;;;7.93;2.88;;;19.60;62.60;;;;;;6254196;28;20037;-82
2023/05/19 14:25:34;;;;;;;4.95;2.58;;;19.60;62.80;;;;;;6251865;28;20047;-82
2023/05/19 14:28:35;;;;;;;6.43;2.95;;;19.70;62.50;;;;;;6250778;28;20644;-85
2023/05/19 14:31:38;;;;;;;5.63;3.20;;;19.80;62.50;;;;;;6254425;28;20052;-83
2023/05/19 14:34:40;;;;;;;5.90;1.90;;;19.80;62.50;;;;;;6256390;28;20048;-83
2023/05/19 14:37:42;;;;;;;5.32;3.47;;;19.80;62.30;;;;;;6249592;28;20042;-84
2023/05/19 14:40:44;;;;;;;2.65;2.22;;;19.70;62.60;;;;;;6251460;28;20046;-84
2023/05/19 14:43:46;;;;;;;6.35;3.25;;;19.80;62.70;;;;;;6253305;28;20050;-84
2023/05/19 14:46:49;;;;;;;5.10;2.78;;;19.60;62.30;;;;;;6246033;28;20044;-81
2023/05/19 14:49:51;;;;;;;4.00;2.28;;;19.40;62.70;;;;;;6250216;28;20048;-84
2023/05/19 14:52:52;;;;;;;7.57;2.80;;;19.30;63.30;;;;;;6252093;28;20048;-85
2023/05/19 14:55:54;;;;;;;7.45;2.25;;;19.30;63.60;;;;;;6252114;28;20041;-81
2023/05/19 14:58:56;;;;;;;9.95;3.33;;;19.30;63.30;;;;;;6248922;28;20053;-81
2023/05/19 15:01:59;;;;;;;5.00;2.75;;;19.20;63.50;;;;;;6249847;28;20103;-83
2023/05/19 15:05:03;;;;;;;6.45;2.60;;;19.20;63.70;;;;;;6248408;28;20060;-82
2023/05/19 15:08:05;;;;;;;8.88;2.38;;;19.40;64.00;;;;;;6245397;28;20041;-80
2023/05/19 15:11:07;;;;;;;4.95;2.42;;;19.60;63.50;;;;;;6253968;28;20048;-82
2023/05/19 15:14:08;;;;;;;5.18;2.42;;;19.60;63.30;;;;;;6249131;28;20050;-87
2023/05/19 15:17:12;;;;;;;11.65;3.28;;;19.60;63.20;;;;;;6237788;28;20048;-82
2023/05/19 15:20:13;;;;;;;6.25;2.25;;;20.00;63.70;;;;;;6242778;28;20049;-82
2023/05/19 15:23:15;;;;;;;6.47;3.22;;;20.30;63.50;;;;;;6236771;28;20052;-81
2023/05/19 15:26:17;;;;;;;5.53;2.50;;;20.50;62.30;;;;;;6239914;28;20050;-81
2023/05/19 15:29:18;;;;;;;7.30;2.72;;;20.30;62.80;;;;;;6236837;28;20045;-82
2023/05/19 15:32:21;;;;;;;10.00;3.42;;;20.30;62.20;;;;;;6242289;28;20052;-83
2023/05/19 15:35:24;;;;;;;10.25;3.78;;;20.20;62.20;;;;;;6186712;28;20038;-85
2023/05/19 15:38:25;;;;;;;8.90;2.75;;;20.00;62.10;;;;;;6235989;28;20511;-81
2023/05/19 15:41:28;;;;;;;3.33;2.47;;;19.80;62.30;;;;;;6239082;28;20037;-85
2023/05/19 15:44:30;;;;;;;4.93;2.65;;;19.50;62.50;;;;;;6246125;28;20060;-81
2023/05/19 15:47:33;;;;;;;7.30;2.75;;;19.30;63.00;;;;;;6254622;28;20061;-82
2023/05/19 15:50:35;;;;;;;6.80;2.78;;;19.10;63.40;;;;;;6254714;28;20042;-82
2023/05/19 15:53:36;;;;;;;2.92;2.10;;;19.10;64.00;;;;;;6246026;28;20508;-83
2023/05/19 15:56:38;;;;;;;5.43;2.92;;;18.90;64.40;;;;;;6251703;28;20372;-81
2023/05/19 15:59:40;;;;;;;3.00;2.33;;;18.80;64.50;;;;;;6252558;28;20496;-84